Time;durP1;ratioP1;P1;durP2;ratioP2;P2;SDS_P1;SDS_P2;PMS_P1;PMS_P2;Temp;Humidity;BMP_temperature;BMP_pressure;BME280_temperature;BME280_humidity;BME280_pressure;Samples;Min_cycle;Max_cycle;Signal;HPM_P1;HPM_P2
2022/05/10 00:01:58;;;;;;;11.65;7.47;;;18.90;59.20;;;;;;5087922;28;20016;-60
2022/05/10 00:04:24;;;;;;;9.15;6.95;;;18.80;59.30;;;;;;5087596;28;20024;-60
2022/05/10 00:06:50;;;;;;;11.88;7.70;;;18.80;59.40;;;;;;5086522;28;20114;-62
2022/05/10 00:09:20;;;;;;;11.70;7.78;;;18.80;59.40;;;;;;5079646;28;20037;-61
2022/05/10 00:11:46;;;;;;;9.30;6.82;;;18.80;59.40;;;;;;5076294;28;20020;-61
2022/05/10 00:14:12;;;;;;;14.55;8.50;;;18.80;59.40;;;;;;5087005;28;20099;-61
2022/05/10 00:16:41;;;;;;;9.45;7.65;;;18.80;59.40;;;;;;5078727;28;20055;-66
2022/05/10 00:19:11;;;;;;;13.05;7.85;;;18.70;59.50;;;;;;5088710;28;20134;-61
2022/05/10 00:21:37;;;;;;;15.32;7.95;;;18.70;59.60;;;;;;5087156;28;20032;-66
2022/05/10 00:24:03;;;;;;;13.63;7.28;;;18.60;59.60;;;;;;5089142;28;20032;-63
2022/05/10 00:26:28;;;;;;;9.43;6.95;;;18.60;59.70;;;;;;5087923;28;20515;-62
2022/05/10 00:28:54;;;;;;;8.82;6.68;;;18.60;59.80;;;;;;5086267;28;20512;-64
2022/05/10 00:31:20;;;;;;;10.10;6.50;;;18.60;59.80;;;;;;5074886;28;20373;-62
2022/05/10 00:33:46;;;;;;;9.73;7.15;;;18.50;59.80;;;;;;5092179;28;20016;-61
2022/05/10 00:36:13;;;;;;;14.57;6.60;;;18.50;59.80;;;;;;5091786;28;20028;-62
2022/05/10 00:38:40;;;;;;;10.10;6.30;;;18.50;59.70;;;;;;5082816;28;20024;-61
2022/05/10 00:41:12;;;;;;;11.00;6.20;;;18.50;59.70;;;;;;5090907;28;20035;-62
2022/05/10 00:43:42;;;;;;;10.57;6.75;;;18.50;59.70;;;;;;5089774;28;20492;-61
2022/05/10 00:46:17;;;;;;;11.20;6.22;;;18.40;59.60;;;;;;5081572;28;20082;-61
2022/05/10 00:48:43;;;;;;;13.18;6.57;;;18.40;59.60;;;;;;5088834;28;20024;-64
2022/05/10 00:51:33;;;;;;;11.35;7.07;;;18.40;59.60;;;;;;5066752;28;20519;-64
2022/05/10 00:54:08;;;;;;;9.48;7.00;;;18.30;59.80;;;;;;5092153;28;20024;-65
2022/05/10 00:56:50;;;;;;;7.72;6.22;;;18.30;59.70;;;;;;5085379;28;20473;-70
2022/05/10 00:59:26;;;;;;;13.80;6.70;;;18.20;59.80;;;;;;5090731;28;20032;-65
2022/05/10 01:02:26;;;;;;;11.68;6.70;;;18.10;59.70;;;;;;5089714;28;20062;-61
2022/05/10 01:04:55;;;;;;;9.82;5.30;;;18.00;60.00;;;;;;5000219;28;20081;-64
2022/05/10 01:07:33;;;;;;;9.40;5.70;;;17.90;60.00;;;;;;5078669;28;20079;-62
2022/05/10 01:10:08;;;;;;;9.02;6.20;;;17.90;60.10;;;;;;5085192;28;20028;-62
2022/05/10 01:12:44;;;;;;;12.98;6.10;;;17.80;60.30;;;;;;5085018;28;20043;-71
2022/05/10 01:15:14;;;;;;;9.50;6.18;;;17.80;60.50;;;;;;5078673;28;20055;-62
2022/05/10 01:17:41;;;;;;;8.50;6.00;;;17.70;60.90;;;;;;5075137;28;20035;-62
2022/05/10 01:20:08;;;;;;;10.13;6.03;;;17.60;61.20;;;;;;5089517;28;20016;-65
2022/05/10 01:23:05;;;;;;;8.73;5.93;;;17.60;61.50;;;;;;5081128;28;20024;-72
2022/05/10 01:26:03;;;;;;;10.23;6.22;;;17.60;61.70;;;;;;5075699;28;20322;-64
2022/05/10 01:28:52;;;;;;;6.93;5.60;;;17.50;61.60;;;;;;5070334;28;20044;-61
2022/05/10 01:31:23;;;;;;;10.18;6.50;;;17.60;61.70;;;;;;5088879;28;20435;-61
2022/05/10 01:33:58;;;;;;;9.75;5.88;;;17.60;61.40;;;;;;5084386;28;20020;-61
2022/05/10 01:36:37;;;;;;;10.10;6.30;;;17.70;61.40;;;;;;5071343;28;20480;-62
2022/05/10 01:39:30;;;;;;;8.98;6.30;;;17.70;61.30;;;;;;5068317;28;20409;-64
2022/05/10 01:42:05;;;;;;;13.00;6.50;;;17.70;61.40;;;;;;5071094;28;20055;-62
2022/05/10 01:44:43;;;;;;;8.13;6.50;;;17.70;61.40;;;;;;5079405;28;20482;-61
2022/05/10 01:47:26;;;;;;;10.68;6.30;;;17.70;61.70;;;;;;5090398;28;20036;-63
2022/05/10 01:49:57;;;;;;;7.82;5.93;;;17.70;61.60;;;;;;5067111;28;20516;-61
2022/05/10 01:53:05;;;;;;;11.27;6.05;;;17.60;61.60;;;;;;5091321;28;20076;-65
2022/05/10 01:55:36;;;;;;;10.57;6.82;;;17.60;61.90;;;;;;5076935;28;20032;-63
2022/05/10 01:58:10;;;;;;;9.25;6.80;;;17.60;61.70;;;;;;5085771;28;20031;-63
2022/05/10 02:00:38;;;;;;;9.93;6.47;;;17.60;61.70;;;;;;5088939;28;20085;-71
2022/05/10 02:03:12;;;;;;;9.15;6.60;;;17.60;61.70;;;;;;5088685;28;20024;-61
2022/05/10 02:05:37;;;;;;;;;;;17.60;61.80;;;;;;5087424;28;20541;-62
2022/05/10 02:08:15;;;;;;;8.73;6.25;;;17.70;62.00;;;;;;5063277;28;19912;-62
2022/05/10 02:10:53;;;;;;;9.60;6.55;;;17.60;61.60;;;;;;5073962;28;20093;-61
2022/05/10 02:13:26;;;;;;;9.15;6.95;;;17.60;61.70;;;;;;5080390;28;20111;-61
2022/05/10 02:16:06;;;;;;;8.95;6.63;;;17.50;61.90;;;;;;5091015;28;20020;-61
2022/05/10 02:19:09;;;;;;;8.10;6.07;;;17.50;62.10;;;;;;5082407;28;20064;-61
2022/05/10 02:21:39;;;;;;;10.82;6.45;;;17.50;62.20;;;;;;5062225;28;20036;-72
2022/05/10 02:24:18;;;;;;;14.57;6.60;;;17.40;62.10;;;;;;5084131;28;20024;-67
2022/05/10 02:26:49;;;;;;;13.30;7.43;;;17.40;62.30;;;;;;5089252;28;20016;-61
2022/05/10 02:29:25;;;;;;;10.60;6.55;;;17.30;62.40;;;;;;5081123;28;20058;-60
2022/05/10 02:34:53;;;;;;;8.70;6.28;;;17.30;62.40;;;;;;5091078;28;20145;-61
2022/05/10 02:37:18;;;;;;;9.55;6.30;;;17.30;62.30;;;;;;5090822;28;20020;-71
2022/05/10 02:39:44;;;;;;;12.20;6.32;;;17.30;62.30;;;;;;5081128;28;20059;-64
2022/05/10 02:42:12;;;;;;;9.63;6.15;;;17.30;62.20;;;;;;5063841;28;20041;-61
2022/05/10 02:44:38;;;;;;;9.73;6.60;;;17.30;62.20;;;;;;5070633;28;20472;-61
2022/05/10 02:47:06;;;;;;;7.97;6.38;;;17.30;62.20;;;;;;5087562;28;20053;-63
2022/05/10 02:49:35;;;;;;;9.35;6.57;;;17.30;62.10;;;;;;5085490;28;20120;-61
2022/05/10 02:52:01;;;;;;;10.32;6.18;;;17.30;62.10;;;;;;5084826;28;20115;-66
2022/05/10 02:54:26;;;;;;;11.75;6.28;;;17.30;62.00;;;;;;5090313;28;20410;-65
2022/05/10 02:57:11;;;;;;;11.18;6.32;;;17.20;61.90;;;;;;5087253;28;20154;-64
2022/05/10 02:59:38;;;;;;;9.85;6.38;;;17.20;61.80;;;;;;5082148;28;20153;-61
2022/05/10 03:02:35;;;;;;;8.85;6.57;;;17.20;61.80;;;;;;5087139;28;20021;-61
2022/05/10 03:05:00;;;;;;;10.88;5.88;;;17.20;61.70;;;;;;5085882;28;20028;-61
2022/05/10 03:07:28;;;;;;;7.22;6.13;;;17.20;61.50;;;;;;5080237;28;20073;-62
2022/05/10 03:09:55;;;;;;;9.20;6.13;;;17.20;61.50;;;;;;5084441;28;20088;-62
2022/05/10 03:12:21;;;;;;;14.20;6.47;;;17.10;61.50;;;;;;5061262;28;20028;-72
2022/05/10 03:14:46;;;;;;;9.73;6.10;;;17.10;61.50;;;;;;5083407;28;20237;-61
2022/05/10 03:17:13;;;;;;;9.35;5.95;;;17.10;61.50;;;;;;5066857;28;20516;-61
2022/05/10 03:19:40;;;;;;;12.00;6.57;;;17.10;62.10;;;;;;5079346;28;20280;-61
2022/05/10 03:22:06;;;;;;;9.27;5.65;;;17.10;61.40;;;;;;5072076;28;20028;-61
2022/05/10 03:24:32;;;;;;;9.52;6.03;;;17.00;61.40;;;;;;5070021;28;20084;-61
2022/05/10 03:27:00;;;;;;;9.40;5.70;;;17.00;61.40;;;;;;5073120;28;20020;-60
2022/05/10 03:29:26;;;;;;;12.32;5.82;;;17.00;61.50;;;;;;5080193;28;20039;-60
2022/05/10 03:31:53;;;;;;;9.68;5.93;;;17.00;61.50;;;;;;5085687;28;20077;-60
2022/05/10 03:37:04;;;;;;;11.82;6.53;;;17.00;61.70;;;;;;5081601;28;20186;-61
2022/05/10 03:39:29;;;;;;;9.70;6.80;;;16.90;62.00;;;;;;5082330;28;20096;-61
2022/05/10 03:41:55;;;;;;;13.50;6.32;;;16.80;62.20;;;;;;5081122;28;20489;-61
2022/05/10 03:44:21;;;;;;;13.65;7.18;;;16.80;62.40;;;;;;5080735;28;20036;-64
2022/05/10 03:46:47;;;;;;;9.10;6.90;;;16.80;62.60;;;;;;5064922;28;20024;-61
2022/05/10 03:49:13;;;;;;;10.00;7.05;;;16.80;62.60;;;;;;5087883;28;20028;-61
2022/05/10 03:51:39;;;;;;;7.68;6.28;;;16.80;62.60;;;;;;5071205;28;20501;-63
2022/05/10 03:54:05;;;;;;;12.40;6.32;;;16.90;62.60;;;;;;5081193;28;20059;-60
2022/05/10 03:56:31;;;;;;;9.45;6.85;;;16.90;62.50;;;;;;5085847;28;20043;-61
2022/05/10 03:58:57;;;;;;;14.02;6.82;;;16.90;62.40;;;;;;5058970;28;20028;-60
2022/05/10 04:01:23;;;;;;;10.10;6.68;;;16.90;62.40;;;;;;5084279;28;20465;-67
2022/05/10 04:03:49;;;;;;;15.25;6.93;;;16.90;62.40;;;;;;5081001;28;20123;-60
2022/05/10 04:06:16;;;;;;;11.30;7.10;;;16.90;62.40;;;;;;5089411;28;20020;-60
2022/05/10 04:08:42;;;;;;;10.90;6.97;;;17.00;62.40;;;;;;5089755;28;20169;-62
2022/05/10 04:11:10;;;;;;;12.85;8.15;;;16.90;62.40;;;;;;5079748;28;20427;-60
2022/05/10 04:13:37;;;;;;;13.38;7.63;;;17.00;62.70;;;;;;5076083;28;20062;-60
2022/05/10 04:16:03;;;;;;;9.00;7.43;;;16.90;62.80;;;;;;5089384;28;20095;-59
2022/05/10 04:18:28;;;;;;;13.07;7.75;;;16.90;62.90;;;;;;5072127;28;20155;-59
2022/05/10 04:20:54;;;;;;;13.27;7.45;;;16.90;63.00;;;;;;5081326;28;20029;-60
2022/05/10 04:23:20;;;;;;;17.20;7.85;;;16.90;63.00;;;;;;5080138;28;20165;-68
2022/05/10 04:25:47;;;;;;;13.77;7.45;;;17.00;63.30;;;;;;5071577;28;20024;-61
2022/05/10 04:28:13;;;;;;;11.98;7.40;;;17.00;63.10;;;;;;5089471;28;20095;-60
2022/05/10 04:30:39;;;;;;;9.57;7.32;;;17.00;63.00;;;;;;5087765;28;20197;-62
2022/05/10 04:33:05;;;;;;;15.73;8.30;;;17.10;63.00;;;;;;5083997;28;20020;-60
2022/05/10 04:35:31;;;;;;;15.15;8.60;;;17.10;62.90;;;;;;5085004;28;20024;-60
2022/05/10 04:38:01;;;;;;;13.73;7.85;;;17.10;62.90;;;;;;5085816;28;20028;-60
2022/05/10 04:43:10;;;;;;;13.60;7.60;;;17.10;62.80;;;;;;5085981;28;20046;-60
2022/05/10 04:45:39;;;;;;;15.40;7.25;;;17.10;62.70;;;;;;5081029;28;20024;-60
2022/05/10 04:48:05;;;;;;;15.20;8.00;;;17.10;62.70;;;;;;5070284;28;20111;-60
2022/05/10 04:50:31;;;;;;;12.40;7.30;;;17.10;62.70;;;;;;5080884;28;20104;-60
2022/05/10 04:52:57;;;;;;;18.80;8.57;;;17.10;62.80;;;;;;5078465;28;20107;-60
2022/05/10 04:55:22;;;;;;;12.23;7.75;;;17.10;62.70;;;;;;5060674;28;20229;-67
2022/05/10 04:57:48;;;;;;;14.10;7.85;;;17.20;62.70;;;;;;5063826;28;20021;-59
2022/05/10 05:00:15;;;;;;;16.10;7.85;;;17.20;62.60;;;;;;5080998;28;20028;-59
2022/05/10 05:02:42;;;;;;;13.55;7.82;;;17.20;62.60;;;;;;5079065;28;20492;-60
2022/05/10 05:05:11;;;;;;;16.90;7.97;;;17.20;62.50;;;;;;5078969;28;20038;-59
2022/05/10 05:07:38;;;;;;;12.40;8.10;;;17.30;62.40;;;;;;5084804;28;20028;-59
2022/05/10 05:10:04;;;;;;;14.90;7.82;;;17.30;62.20;;;;;;5092364;28;20457;-60
2022/05/10 05:12:32;;;;;;;15.63;8.07;;;17.40;62.20;;;;;;5079190;28;20311;-61
2022/05/10 05:14:59;;;;;;;12.65;7.85;;;17.40;62.00;;;;;;5066075;28;20046;-60
2022/05/10 05:17:25;;;;;;;14.02;8.38;;;17.50;62.00;;;;;;5087024;28;20032;-68
2022/05/10 05:19:50;;;;;;;12.25;8.07;;;17.50;61.80;;;;;;5088823;28;20373;-61
2022/05/10 05:22:16;;;;;;;13.60;8.10;;;17.60;61.20;;;;;;5093501;28;20384;-61
2022/05/10 05:24:42;;;;;;;14.82;7.55;;;17.70;60.90;;;;;;5083576;28;20028;-59
2022/05/10 05:27:07;;;;;;;17.23;8.65;;;17.80;60.50;;;;;;5091701;28;20028;-59
2022/05/10 05:29:33;;;;;;;16.27;8.50;;;17.90;60.20;;;;;;5083618;28;20019;-60
2022/05/10 05:32:02;;;;;;;16.08;7.80;;;18.10;59.60;;;;;;5085946;28;20488;-60
2022/05/10 05:34:29;;;;;;;20.10;8.38;;;18.10;58.80;;;;;;5070933;28;20028;-68
2022/05/10 05:39:39;;;;;;;18.13;8.32;;;18.30;57.50;;;;;;5076087;28;20366;-59
2022/05/10 05:42:05;;;;;;;15.90;7.18;;;18.30;56.80;;;;;;5084542;28;20044;-59
2022/05/10 05:44:31;;;;;;;15.45;7.03;;;18.40;56.90;;;;;;5061233;28;20041;-66
2022/05/10 05:46:57;;;;;;;13.52;7.22;;;18.40;56.30;;;;;;5067780;28;20490;-60
2022/05/10 05:49:25;;;;;;;14.85;7.45;;;18.50;56.10;;;;;;5084773;28;20106;-60
2022/05/10 05:51:56;;;;;;;15.35;7.05;;;18.50;55.60;;;;;;5082514;28;20037;-62
2022/05/10 05:54:21;;;;;;;13.75;7.70;;;18.60;55.20;;;;;;5093255;28;20024;-60
2022/05/10 05:56:47;;;;;;;18.40;7.72;;;18.70;55.00;;;;;;5085943;28;20020;-61
2022/05/10 05:59:13;;;;;;;12.93;7.28;;;18.80;54.90;;;;;;5079547;28;20035;-65
2022/05/10 06:01:39;;;;;;;16.20;8.07;;;18.90;54.70;;;;;;5085097;28;20027;-62
2022/05/10 06:04:04;;;;;;;16.38;7.88;;;19.00;54.00;;;;;;5083131;28;20022;-61
2022/05/10 06:06:31;;;;;;;13.98;7.07;;;19.20;53.40;;;;;;5060159;28;20111;-68
2022/05/10 06:08:57;;;;;;;16.88;7.35;;;19.30;52.70;;;;;;5069929;28;20113;-60
2022/05/10 06:11:23;;;;;;;13.32;7.22;;;19.40;52.80;;;;;;5073486;28;20488;-61
2022/05/10 06:13:48;;;;;;;12.00;7.95;;;19.40;53.00;;;;;;5068936;28;20159;-61
2022/05/10 06:16:14;;;;;;;16.65;7.93;;;19.40;53.00;;;;;;5077357;28;20024;-59
2022/05/10 06:18:41;;;;;;;14.15;7.50;;;19.50;53.00;;;;;;5069552;28;20059;-60
2022/05/10 06:21:07;;;;;;;21.40;7.85;;;19.60;52.70;;;;;;5083561;28;20495;-60
2022/05/10 06:23:32;;;;;;;16.52;7.20;;;19.80;52.40;;;;;;5089071;28;20111;-67
2022/05/10 06:25:58;;;;;;;14.65;7.40;;;19.90;51.60;;;;;;5079173;28;20029;-59
2022/05/10 06:28:24;;;;;;;24.35;7.35;;;19.90;51.40;;;;;;5089342;28;20024;-59
2022/05/10 06:30:49;;;;;;;22.50;8.57;;;20.00;51.30;;;;;;5081682;28;20427;-59
2022/05/10 06:33:16;;;;;;;13.75;6.93;;;20.20;51.00;;;;;;5087585;28;20020;-60
2022/05/10 06:35:43;;;;;;;14.23;7.40;;;20.30;50.10;;;;;;5088282;28;20399;-60
2022/05/10 06:38:19;;;;;;;16.23;6.68;;;20.40;50.00;;;;;;5086223;28;20024;-59
2022/05/10 06:40:47;;;;;;;17.25;7.25;;;20.50;48.60;;;;;;5084826;28;20103;-61
2022/05/10 06:43:13;;;;;;;19.55;6.63;;;20.60;47.50;;;;;;5086709;28;20485;-61
2022/05/10 06:45:42;;;;;;;15.68;6.50;;;20.70;47.00;;;;;;5083792;28;20032;-61
2022/05/10 06:48:09;;;;;;;16.10;6.25;;;20.80;46.80;;;;;;5085997;28;20021;-61
2022/05/10 06:50:36;;;;;;;14.13;7.53;;;20.90;46.50;;;;;;5084822;28;20028;-65
2022/05/10 06:53:02;;;;;;;18.77;6.68;;;21.10;46.50;;;;;;5072181;28;20036;-61
2022/05/10 06:55:29;;;;;;;22.17;7.88;;;22.40;46.70;;;;;;5061163;28;20364;-61
2022/05/10 06:57:55;;;;;;;27.00;7.80;;;25.40;42.90;;;;;;5066941;28;20070;-60
2022/05/10 07:00:22;;;;;;;22.77;8.00;;;28.40;38.40;;;;;;5061668;28;20107;-67
2022/05/10 07:02:48;;;;;;;16.02;6.13;;;30.70;35.50;;;;;;5077746;28;20485;-61
2022/05/10 07:05:17;;;;;;;17.08;7.00;;;32.90;32.80;;;;;;5066008;28;20201;-63
2022/05/10 07:07:43;;;;;;;11.32;5.85;;;34.80;30.10;;;;;;5077120;28;20034;-62
2022/05/10 07:10:11;;;;;;;15.35;6.80;;;36.20;28.60;;;;;;5084669;28;20063;-60
2022/05/10 07:12:41;;;;;;;12.90;6.32;;;37.40;27.70;;;;;;5085646;28;20046;-63
2022/05/10 07:15:10;;;;;;;14.38;6.65;;;38.60;26.70;;;;;;5062265;28;20043;-61
2022/05/10 07:17:38;;;;;;;14.20;6.20;;;39.70;26.30;;;;;;5069213;28;20055;-68
2022/05/10 07:20:07;;;;;;;19.08;6.45;;;40.40;24.40;;;;;;5064591;28;20016;-62
2022/05/10 07:22:33;;;;;;;13.63;6.78;;;40.80;24.50;;;;;;5067730;28;20068;-70
2022/05/10 07:24:59;;;;;;;15.70;6.63;;;41.60;24.30;;;;;;5088953;28;20251;-61
2022/05/10 07:27:25;;;;;;;16.92;6.85;;;42.30;24.00;;;;;;5090327;28;20032;-60
2022/05/10 07:29:50;;;;;;;14.45;5.70;;;42.90;23.50;;;;;;5061446;28;20491;-60
2022/05/10 07:32:19;;;;;;;12.30;6.18;;;43.50;23.30;;;;;;5069728;28;20487;-60
2022/05/10 07:34:45;;;;;;;14.15;6.50;;;44.40;23.10;;;;;;5087054;28;20032;-60
2022/05/10 07:37:11;;;;;;;17.23;6.18;;;45.20;22.60;;;;;;5076752;28;20108;-60
2022/05/10 07:39:37;;;;;;;16.23;7.55;;;45.20;22.00;;;;;;5074865;28;20103;-68
2022/05/10 07:42:04;;;;;;;14.60;6.35;;;45.20;22.00;;;;;;5075297;28;20058;-62
2022/05/10 07:44:31;;;;;;;15.85;6.60;;;45.70;21.90;;;;;;5087751;28;20107;-61
2022/05/10 07:46:57;;;;;;;10.90;6.40;;;45.90;21.50;;;;;;5069696;28;20032;-60
2022/05/10 07:49:23;;;;;;;12.93;6.07;;;46.30;21.70;;;;;;5077447;28;20028;-60
2022/05/10 07:51:48;;;;;;;19.33;7.18;;;46.60;21.40;;;;;;5070564;28;20035;-61
2022/05/10 07:54:14;;;;;;;14.35;6.40;;;46.10;21.40;;;;;;5083797;28;20016;-61
2022/05/10 07:56:41;;;;;;;14.95;6.32;;;46.50;21.30;;;;;;5059922;28;20017;-60
2022/05/10 07:59:07;;;;;;;15.05;5.68;;;47.10;21.40;;;;;;5072579;28;20016;-63
2022/05/10 08:01:33;;;;;;;14.10;6.38;;;47.90;21.20;;;;;;5088711;28;20027;-63
2022/05/10 08:03:59;;;;;;;14.48;6.35;;;48.40;21.00;;;;;;5088631;28;20020;-62
2022/05/10 08:06:27;;;;;;;13.93;6.82;;;48.70;20.80;;;;;;5071544;28;20028;-62
2022/05/10 08:08:52;;;;;;;14.00;6.70;;;49.20;20.70;;;;;;5051658;28;20133;-64
2022/05/10 08:11:19;;;;;;;11.98;7.55;;;49.80;20.60;;;;;;5082653;28;20020;-65
2022/05/10 08:13:45;;;;;;;24.75;7.00;;;50.00;20.40;;;;;;5079087;28;20120;-64
2022/05/10 08:16:11;;;;;;;17.98;6.53;;;49.60;20.10;;;;;;5084544;28;20051;-63
2022/05/10 08:18:45;;;;;;;12.82;6.53;;;49.50;20.20;;;;;;5089715;28;20028;-72
2022/05/10 08:21:12;;;;;;;14.98;6.07;;;49.80;20.30;;;;;;5090644;28;20450;-64
2022/05/10 08:23:38;;;;;;;13.23;6.18;;;50.00;20.50;;;;;;5077670;28;20036;-71
2022/05/10 08:26:05;;;;;;;17.20;6.38;;;49.30;20.00;;;;;;5089386;28;20028;-64
2022/05/10 08:28:34;;;;;;;19.45;6.40;;;50.00;20.20;;;;;;5081050;28;20051;-63
2022/05/10 08:31:23;;;;;;;13.15;6.53;;;50.80;19.80;;;;;;5063094;28;20255;-64
2022/05/10 08:33:49;;;;;;;10.90;6.30;;;50.20;19.70;;;;;;5078014;28;20028;-64
2022/05/10 08:36:15;;;;;;;14.00;6.50;;;50.00;19.70;;;;;;5066820;28;20027;-64
2022/05/10 08:38:40;;;;;;;15.77;6.20;;;50.50;19.90;;;;;;5083377;28;20032;-70
2022/05/10 08:41:17;;;;;;;12.32;5.93;;;51.00;19.90;;;;;;5073791;28;20032;-63
2022/05/10 08:43:46;;;;;;;15.60;6.63;;;51.40;19.80;;;;;;5093577;28;20031;-72
2022/05/10 08:46:16;;;;;;;16.75;6.20;;;51.50;19.70;;;;;;5093152;28;20158;-64
2022/05/10 08:49:02;;;;;;;16.30;6.63;;;51.10;19.70;;;;;;5090070;28;20012;-73
2022/05/10 08:51:29;;;;;;;11.02;5.55;;;50.20;19.80;;;;;;5085392;28;20133;-63
2022/05/10 08:53:55;;;;;;;14.77;6.32;;;50.10;19.90;;;;;;5060822;28;20075;-63
2022/05/10 08:56:32;;;;;;;20.20;6.15;;;50.10;19.80;;;;;;5091826;28;20457;-63
2022/05/10 08:59:32;;;;;;;14.32;5.70;;;48.60;19.80;;;;;;5084351;28;20055;-63
2022/05/10 09:02:00;;;;;;;16.70;6.32;;;47.90;20.00;;;;;;5067057;28;20566;-64
2022/05/10 09:04:50;;;;;;;10.80;6.15;;;47.80;20.30;;;;;;5071611;28;20056;-63
2022/05/10 09:07:49;;;;;;;16.98;5.47;;;47.30;20.20;;;;;;5067987;28;20036;-63
2022/05/10 09:10:24;;;;;;;12.25;4.97;;;45.50;20.40;;;;;;5092092;28;20028;-62
2022/05/10 09:13:06;;;;;;;17.02;5.22;;;42.40;21.70;;;;;;5075600;28;20029;-64
2022/05/10 09:15:40;;;;;;;24.25;6.63;;;39.30;23.00;;;;;;5069159;28;20032;-62
2022/05/10 09:18:18;;;;;;;20.08;5.82;;;36.80;24.40;;;;;;5089433;28;20040;-63
2022/05/10 09:21:15;;;;;;;12.27;5.38;;;35.00;25.70;;;;;;5064653;28;20503;-69
2022/05/10 09:24:15;;;;;;;11.18;4.65;;;33.50;26.70;;;;;;5089466;28;20038;-71
2022/05/10 09:26:44;;;;;;;13.50;4.97;;;32.10;27.60;;;;;;5075284;28;20114;-69
2022/05/10 09:29:36;;;;;;;11.32;4.80;;;31.40;28.10;;;;;;5082008;28;20035;-63
2022/05/10 09:35:19;;;;;;;12.40;5.43;;;30.40;28.80;;;;;;5090476;28;20023;-64
2022/05/10 09:38:06;;;;;;;;;;;30.10;29.40;;;;;;5057375;28;20021;-71
2022/05/10 09:40:46;;;;;;;8.85;4.53;;;29.80;29.80;;;;;;5093107;28;19915;-64
2022/05/10 09:43:15;;;;;;;9.55;4.30;;;29.40;29.90;;;;;;5086502;28;20040;-62
2022/05/10 09:45:42;;;;;;;8.85;4.68;;;29.10;30.40;;;;;;5070370;28;20039;-62
2022/05/10 09:48:07;;;;;;;10.48;4.28;;;28.90;30.40;;;;;;5092173;28;20047;-64
2022/05/10 09:50:42;;;;;;;11.93;4.18;;;28.60;30.50;;;;;;5072076;28;20060;-63
2022/05/10 09:53:33;;;;;;;8.65;4.47;;;28.50;30.90;;;;;;5081137;28;20028;-63
2022/05/10 09:56:07;;;;;;;10.57;4.55;;;28.40;31.30;;;;;;5077616;28;20082;-63
2022/05/10 09:58:32;;;;;;;;;;;28.30;31.10;;;;;;5091234;28;20032;-61
2022/05/10 10:01:00;;;;;;;10.20;4.07;;;28.30;30.70;;;;;;5085154;28;19991;-62
2022/05/10 10:03:45;;;;;;;10.90;4.18;;;27.90;31.40;;;;;;5092304;28;20035;-60
2022/05/10 10:06:25;;;;;;;10.95;3.90;;;27.60;31.40;;;;;;5089726;28;20118;-61
2022/05/10 10:08:53;;;;;;;8.13;4.30;;;27.30;31.50;;;;;;5091666;28;20016;-62
2022/05/10 10:11:32;;;;;;;8.25;4.60;;;27.30;31.50;;;;;;5061215;28;20044;-64
2022/05/10 10:14:10;;;;;;;10.85;4.97;;;27.40;31.80;;;;;;5073181;28;20020;-61
2022/05/10 10:16:53;;;;;;;10.52;4.80;;;27.40;32.30;;;;;;5085755;28;20054;-61
2022/05/10 10:19:18;;;;;;;27.00;17.38;;;27.40;32.00;;;;;;5063790;28;20024;-62
2022/05/10 10:22:05;;;;;;;15.10;6.78;;;27.20;32.10;;;;;;5087115;28;20047;-61
2022/05/10 10:24:37;;;;;;;12.77;3.70;;;27.30;32.10;;;;;;5073716;28;20016;-61
2022/05/10 10:27:08;;;;;;;35.80;24.13;;;27.40;31.50;;;;;;5070110;28;20832;-64
2022/05/10 10:29:37;;;;;;;34.90;29.23;;;27.20;31.20;;;;;;5077010;28;20036;-61
2022/05/10 10:32:32;;;;;;;17.58;11.43;;;27.20;31.40;;;;;;5065265;28;20056;-62
2022/05/10 10:35:10;;;;;;;8.30;4.38;;;27.30;31.40;;;;;;5055687;28;20032;-60
2022/05/10 10:37:56;;;;;;;8.45;5.45;;;27.50;31.30;;;;;;5081175;28;20446;-61
2022/05/10 10:40:47;;;;;;;11.05;4.65;;;27.60;31.10;;;;;;5057186;28;20059;-62
2022/05/10 10:43:32;;;;;;;9.63;5.90;;;27.60;31.20;;;;;;5061606;28;20224;-61
2022/05/10 10:46:19;;;;;;;11.15;4.90;;;27.40;31.50;;;;;;5080202;28;20058;-63
2022/05/10 10:48:52;;;;;;;14.00;6.03;;;27.10;31.60;;;;;;5066386;28;20024;-64
2022/05/10 10:51:21;;;;;;;13.77;6.07;;;27.00;31.40;;;;;;5089151;28;20050;-63
2022/05/10 10:53:47;;;;;;;9.43;4.18;;;27.00;31.60;;;;;;5090184;28;20031;-64
2022/05/10 10:56:41;;;;;;;9.75;5.32;;;26.80;31.60;;;;;;5071573;28;20492;-63
2022/05/10 10:59:18;;;;;;;10.85;6.03;;;27.00;31.80;;;;;;5064636;28;20025;-63
2022/05/10 11:01:53;;;;;;;15.63;4.95;;;27.10;31.40;;;;;;5061254;28;20486;-63
2022/05/10 11:04:52;;;;;;;15.43;4.93;;;27.20;31.60;;;;;;5071046;28;20020;-63
2022/05/10 11:07:39;;;;;;;17.45;5.78;;;27.20;31.50;;;;;;5084332;28;20028;-63
2022/05/10 11:10:14;;;;;;;14.20;5.50;;;27.30;31.30;;;;;;5090349;28;20095;-63
2022/05/10 11:12:52;;;;;;;14.05;6.10;;;27.50;31.00;;;;;;5056660;28;20024;-62
2022/05/10 11:15:45;;;;;;;14.32;4.65;;;27.30;30.80;;;;;;5071625;28;20039;-64
2022/05/10 11:18:26;;;;;;;8.73;4.68;;;27.40;31.20;;;;;;5090036;28;20261;-63
2022/05/10 11:21:04;;;;;;;6.97;3.63;;;27.70;31.10;;;;;;5072055;28;20393;-70
2022/05/10 11:23:36;;;;;;;11.25;4.32;;;27.70;30.40;;;;;;5064379;28;20477;-62
2022/05/10 11:26:12;;;;;;;10.57;5.30;;;27.70;30.40;;;;;;5090117;28;20015;-62
2022/05/10 11:28:54;;;;;;;7.95;3.70;;;27.60;30.60;;;;;;5090840;28;20061;-62
2022/05/10 11:31:44;;;;;;;7.95;5.03;;;27.90;30.60;;;;;;5090095;28;20014;-62
2022/05/10 11:34:24;;;;;;;12.43;4.72;;;28.10;30.20;;;;;;5071496;28;20036;-60
2022/05/10 11:36:52;;;;;;;12.05;4.35;;;28.40;30.20;;;;;;5071705;28;20053;-66
2022/05/10 11:39:53;;;;;;;46.10;18.73;;;28.70;30.00;;;;;;5077320;28;20051;-62
2022/05/10 11:42:32;;;;;;;21.58;5.65;;;28.90;29.90;;;;;;5071985;28;20082;-62
2022/05/10 11:45:34;;;;;;;17.17;5.20;;;28.70;30.30;;;;;;5071283;28;20035;-62
2022/05/10 11:48:06;;;;;;;22.38;5.05;;;28.60;30.50;;;;;;5067241;28;20028;-62
2022/05/10 11:51:38;;;;;;;11.95;4.00;;;28.50;30.50;;;;;;5052417;28;20017;-63
2022/05/10 11:53:47;;;;;;;8.63;5.47;;;28.30;30.70;;;;;;5082554;28;20554;-62
2022/05/10 11:56:17;;;;;;;14.40;4.80;;;28.20;30.80;;;;;;5089089;28;20052;-63
2022/05/10 11:59:02;;;;;;;12.73;4.75;;;28.10;30.90;;;;;;5088482;28;20024;-61
2022/05/10 12:01:55;;;;;;;8.43;3.97;;;28.00;30.80;;;;;;5061034;28;20103;-62
2022/05/10 12:04:48;;;;;;;10.52;3.72;;;28.00;31.30;;;;;;5068366;28;20036;-62
2022/05/10 12:07:19;;;;;;;7.65;3.63;;;27.90;30.80;;;;;;5086825;28;20349;-62
2022/05/10 12:09:52;;;;;;;9.52;3.67;;;27.70;30.90;;;;;;5071870;28;20449;-62
2022/05/10 12:12:32;;;;;;;9.77;4.07;;;27.60;31.30;;;;;;5071491;28;20040;-62
2022/05/10 12:21:27;;;;;;;9.75;4.50;;;27.60;31.50;;;;;;5088802;28;20116;-70
2022/05/10 12:24:25;;;;;;;11.93;4.55;;;27.70;31.30;;;;;;5037238;28;20499;-63
2022/05/10 12:26:51;;;;;;;8.55;3.78;;;27.60;31.40;;;;;;5079017;28;20058;-62
2022/05/10 12:29:38;;;;;;;11.13;5.20;;;27.80;31.20;;;;;;5093468;28;20035;-61
2022/05/10 12:32:11;;;;;;;5.53;3.72;;;27.90;31.00;;;;;;5081494;28;20047;-62
2022/05/10 12:34:56;;;;;;;9.25;3.88;;;27.90;31.00;;;;;;5090398;28;20020;-62
2022/05/10 12:37:22;;;;;;;10.88;4.10;;;28.10;31.00;;;;;;5075321;28;20134;-62
2022/05/10 12:39:53;;;;;;;11.00;4.07;;;27.90;30.70;;;;;;5076066;28;20024;-63
2022/05/10 12:43:28;;;;;;;8.52;3.20;;;27.50;31.10;;;;;;5081483;28;20114;-63
2022/05/10 12:46:17;;;;;;;6.28;3.72;;;27.30;31.40;;;;;;4992304;28;20022;-62
2022/05/10 12:49:12;;;;;;;15.27;6.00;;;27.00;31.70;;;;;;4989183;28;20041;-62
2022/05/10 12:51:45;;;;;;;9.95;5.22;;;26.90;32.10;;;;;;4974097;28;20500;-63
2022/05/10 12:54:21;;;;;;;9.57;3.72;;;27.00;32.00;;;;;;4987258;28;20603;-62
2022/05/10 12:57:12;;;;;;;8.85;5.35;;;27.10;32.10;;;;;;4971373;28;20026;-62
2022/05/10 12:59:41;;;;;;;8.02;4.90;;;27.50;32.20;;;;;;4988745;28;20042;-63
2022/05/10 13:02:09;;;;;;;11.20;4.53;;;27.80;31.70;;;;;;4990678;28;20031;-62
2022/05/10 13:04:42;;;;;;;9.57;6.05;;;27.90;31.80;;;;;;4990888;28;20042;-61
2022/05/10 13:07:14;;;;;;;17.60;13.38;;;28.10;31.20;;;;;;4964733;28;20026;-61
2022/05/10 13:09:59;;;;;;;14.07;5.70;;;28.10;30.70;;;;;;4987108;28;20027;-63
2022/05/10 13:12:32;;;;;;;10.93;6.30;;;28.30;30.80;;;;;;4976637;28;20172;-61
2022/05/10 13:15:08;;;;;;;8.20;4.22;;;28.50;30.80;;;;;;4971979;28;20041;-69
2022/05/10 13:17:54;;;;;;;15.32;5.00;;;28.50;30.40;;;;;;5061365;28;20119;-62
2022/05/10 13:20:26;;;;;;;10.20;4.10;;;28.60;30.60;;;;;;5092109;28;20481;-63
2022/05/10 13:23:17;;;;;;;8.75;3.60;;;28.50;30.20;;;;;;5091056;28;20028;-61
2022/05/10 13:25:44;;;;;;;9.73;5.07;;;28.40;30.20;;;;;;5001890;28;20034;-62
2022/05/10 13:28:22;;;;;;;8.07;4.10;;;28.40;30.40;;;;;;5007152;28;20502;-62
2022/05/10 13:30:49;;;;;;;9.60;3.58;;;28.40;30.80;;;;;;5011751;28;20038;-63